sensor_id;sensor_type;location;lat;lon;timestamp;P1;durP1;ratioP1;P2;durP2;ratioP2
77984;SDS011;67177;47.240;-1.546;2023-12-07T00:01:13;8.52;;;2.70;;
77984;SDS011;67177;47.240;-1.546;2023-12-07T00:03:39;8.33;;;3.00;;
77984;SDS011;67177;47.240;-1.546;2023-12-07T00:06:04;6.35;;;2.90;;
77984;SDS011;67177;47.240;-1.546;2023-12-07T00:08:30;9.53;;;3.17;;
77984;SDS011;67177;47.240;-1.546;2023-12-07T00:10:56;9.13;;;3.20;;
77984;SDS011;67177;47.240;-1.546;2023-12-07T00:13:21;9.52;;;3.10;;
77984;SDS011;67177;47.240;-1.546;2023-12-07T00:15:47;7.90;;;3.20;;
77984;SDS011;67177;47.240;-1.546;2023-12-07T00:18:13;9.00;;;2.95;;
77984;SDS011;67177;47.240;-1.546;2023-12-07T00:20:38;8.53;;;2.93;;
77984;SDS011;67177;47.240;-1.546;2023-12-07T00:23:04;7.53;;;2.97;;
77984;SDS011;67177;47.240;-1.546;2023-12-07T00:25:30;10.25;;;2.75;;
77984;SDS011;67177;47.240;-1.546;2023-12-07T00:27:56;9.13;;;2.75;;
77984;SDS011;67177;47.240;-1.546;2023-12-07T00:30:22;8.80;;;2.57;;
77984;SDS011;67177;47.240;-1.546;2023-12-07T00:32:47;8.48;;;2.90;;
77984;SDS011;67177;47.240;-1.546;2023-12-07T00:35:14;8.32;;;2.90;;
77984;SDS011;67177;47.240;-1.546;2023-12-07T00:37:41;8.77;;;2.80;;
77984;SDS011;67177;47.240;-1.546;2023-12-07T00:40:07;8.73;;;3.15;;
77984;SDS011;67177;47.240;-1.546;2023-12-07T00:42:32;6.68;;;2.97;;
77984;SDS011;67177;47.240;-1.546;2023-12-07T00:44:59;9.07;;;3.07;;
77984;SDS011;67177;47.240;-1.546;2023-12-07T00:47:25;7.20;;;2.83;;
77984;SDS011;67177;47.240;-1.546;2023-12-07T00:49:51;9.43;;;3.10;;
77984;SDS011;67177;47.240;-1.546;2023-12-07T00:52:16;11.10;;;3.30;;
77984;SDS011;67177;47.240;-1.546;2023-12-07T00:54:43;9.13;;;2.97;;
77984;SDS011;67177;47.240;-1.546;2023-12-07T00:57:09;12.82;;;3.33;;
77984;SDS011;67177;47.240;-1.546;2023-12-07T00:59:35;10.87;;;3.57;;
77984;SDS011;67177;47.240;-1.546;2023-12-07T01:02:01;8.60;;;2.92;;
77984;SDS011;67177;47.240;-1.546;2023-12-07T01:04:31;9.43;;;3.33;;
77984;SDS011;67177;47.240;-1.546;2023-12-07T01:06:57;8.25;;;3.25;;
77984;SDS011;67177;47.240;-1.546;2023-12-07T01:09:23;9.63;;;3.33;;
77984;SDS011;67177;47.240;-1.546;2023-12-07T01:11:49;9.55;;;3.20;;
77984;SDS011;67177;47.240;-1.546;2023-12-07T01:14:14;9.80;;;3.47;;
77984;SDS011;67177;47.240;-1.546;2023-12-07T01:16:40;8.33;;;3.33;;
77984;SDS011;67177;47.240;-1.546;2023-12-07T01:19:06;9.20;;;3.50;;
77984;SDS011;67177;47.240;-1.546;2023-12-07T01:21:32;10.57;;;3.80;;
77984;SDS011;67177;47.240;-1.546;2023-12-07T01:23:58;7.25;;;3.20;;
77984;SDS011;67177;47.240;-1.546;2023-12-07T01:26:24;8.97;;;3.13;;
77984;SDS011;67177;47.240;-1.546;2023-12-07T01:28:50;7.63;;;3.10;;
77984;SDS011;67177;47.240;-1.546;2023-12-07T01:31:15;10.02;;;3.50;;
77984;SDS011;67177;47.240;-1.546;2023-12-07T01:33:42;8.30;;;3.47;;
77984;SDS011;67177;47.240;-1.546;2023-12-07T01:36:08;7.85;;;3.05;;
77984;SDS011;67177;47.240;-1.546;2023-12-07T01:38:34;10.32;;;3.30;;
77984;SDS011;67177;47.240;-1.546;2023-12-07T01:40:59;9.77;;;3.50;;
77984;SDS011;67177;47.240;-1.546;2023-12-07T01:43:25;9.90;;;3.30;;
77984;SDS011;67177;47.240;-1.546;2023-12-07T01:45:51;9.03;;;3.20;;
77984;SDS011;67177;47.240;-1.546;2023-12-07T01:48:19;7.53;;;3.22;;
77984;SDS011;67177;47.240;-1.546;2023-12-07T01:50:46;11.27;;;3.45;;
77984;SDS011;67177;47.240;-1.546;2023-12-07T01:53:12;8.43;;;3.43;;
77984;SDS011;67177;47.240;-1.546;2023-12-07T01:55:39;8.23;;;3.40;;
77984;SDS011;67177;47.240;-1.546;2023-12-07T01:58:05;8.45;;;3.15;;
77984;SDS011;67177;47.240;-1.546;2023-12-07T02:00:32;8.07;;;3.00;;
77984;SDS011;67177;47.240;-1.546;2023-12-07T02:02:59;7.60;;;2.87;;
77984;SDS011;67177;47.240;-1.546;2023-12-07T02:05:27;6.93;;;2.90;;
77984;SDS011;67177;47.240;-1.546;2023-12-07T02:07:54;8.73;;;2.88;;
77984;SDS011;67177;47.240;-1.546;2023-12-07T02:10:20;6.97;;;2.70;;
77984;SDS011;67177;47.240;-1.546;2023-12-07T02:12:46;8.77;;;3.13;;
77984;SDS011;67177;47.240;-1.546;2023-12-07T02:15:12;7.88;;;2.92;;
77984;SDS011;67177;47.240;-1.546;2023-12-07T02:22:58;8.38;;;2.90;;
77984;SDS011;67177;47.240;-1.546;2023-12-07T02:25:36;7.47;;;3.25;;
77984;SDS011;67177;47.240;-1.546;2023-12-07T02:28:05;8.18;;;3.30;;
77984;SDS011;67177;47.240;-1.546;2023-12-07T02:30:31;8.50;;;3.27;;
77984;SDS011;67177;47.240;-1.546;2023-12-07T02:32:57;10.25;;;3.50;;
77984;SDS011;67177;47.240;-1.546;2023-12-07T02:35:23;9.35;;;3.13;;
77984;SDS011;67177;47.240;-1.546;2023-12-07T02:37:49;7.15;;;3.05;;
77984;SDS011;67177;47.240;-1.546;2023-12-07T02:40:17;8.80;;;3.40;;
77984;SDS011;67177;47.240;-1.546;2023-12-07T02:42:45;10.88;;;3.40;;
77984;SDS011;67177;47.240;-1.546;2023-12-07T02:45:12;12.00;;;3.33;;
77984;SDS011;67177;47.240;-1.546;2023-12-07T02:47:38;10.90;;;3.47;;
77984;SDS011;67177;47.240;-1.546;2023-12-07T02:50:04;7.57;;;2.78;;
77984;SDS011;67177;47.240;-1.546;2023-12-07T02:52:31;8.27;;;3.07;;
77984;SDS011;67177;47.240;-1.546;2023-12-07T02:54:57;8.48;;;3.00;;
77984;SDS011;67177;47.240;-1.546;2023-12-07T02:57:23;7.45;;;3.20;;
77984;SDS011;67177;47.240;-1.546;2023-12-07T02:59:48;7.50;;;3.03;;
77984;SDS011;67177;47.240;-1.546;2023-12-07T03:02:14;9.00;;;3.10;;
77984;SDS011;67177;47.240;-1.546;2023-12-07T03:04:39;10.43;;;3.45;;
77984;SDS011;67177;47.240;-1.546;2023-12-07T03:07:05;8.03;;;3.20;;
77984;SDS011;67177;47.240;-1.546;2023-12-07T03:09:31;10.15;;;3.25;;
77984;SDS011;67177;47.240;-1.546;2023-12-07T03:11:56;8.38;;;3.45;;
77984;SDS011;67177;47.240;-1.546;2023-12-07T03:14:22;8.57;;;3.20;;
77984;SDS011;67177;47.240;-1.546;2023-12-07T03:16:48;9.13;;;3.10;;
77984;SDS011;67177;47.240;-1.546;2023-12-07T03:19:14;9.57;;;3.30;;
77984;SDS011;67177;47.240;-1.546;2023-12-07T03:21:40;8.27;;;3.10;;
77984;SDS011;67177;47.240;-1.546;2023-12-07T03:24:06;8.75;;;3.08;;
77984;SDS011;67177;47.240;-1.546;2023-12-07T03:26:36;10.93;;;3.90;;
77984;SDS011;67177;47.240;-1.546;2023-12-07T03:29:02;8.20;;;3.13;;
77984;SDS011;67177;47.240;-1.546;2023-12-07T03:31:28;8.77;;;3.20;;
77984;SDS011;67177;47.240;-1.546;2023-12-07T03:33:54;9.63;;;3.20;;
77984;SDS011;67177;47.240;-1.546;2023-12-07T03:36:20;7.15;;;3.05;;
77984;SDS011;67177;47.240;-1.546;2023-12-07T03:38:47;9.02;;;3.55;;
77984;SDS011;67177;47.240;-1.546;2023-12-07T03:41:13;8.83;;;3.40;;
77984;SDS011;67177;47.240;-1.546;2023-12-07T03:43:38;9.20;;;3.45;;
77984;SDS011;67177;47.240;-1.546;2023-12-07T03:46:04;10.33;;;3.40;;
77984;SDS011;67177;47.240;-1.546;2023-12-07T03:48:31;9.13;;;3.28;;
77984;SDS011;67177;47.240;-1.546;2023-12-07T03:50:58;7.88;;;3.38;;
77984;SDS011;67177;47.240;-1.546;2023-12-07T03:53:23;8.17;;;3.20;;
77984;SDS011;67177;47.240;-1.546;2023-12-07T03:55:49;10.68;;;3.45;;
77984;SDS011;67177;47.240;-1.546;2023-12-07T03:58:14;8.90;;;3.40;;
77984;SDS011;67177;47.240;-1.546;2023-12-07T04:00:40;7.90;;;3.10;;
77984;SDS011;67177;47.240;-1.546;2023-12-07T04:03:06;9.53;;;3.37;;
77984;SDS011;67177;47.240;-1.546;2023-12-07T04:05:32;9.80;;;3.38;;
77984;SDS011;67177;47.240;-1.546;2023-12-07T04:07:58;7.85;;;3.58;;
77984;SDS011;67177;47.240;-1.546;2023-12-07T04:10:24;9.53;;;3.30;;
77984;SDS011;67177;47.240;-1.546;2023-12-07T04:12:49;8.33;;;3.33;;
77984;SDS011;67177;47.240;-1.546;2023-12-07T04:15:17;8.90;;;3.25;;
77984;SDS011;67177;47.240;-1.546;2023-12-07T04:17:43;9.07;;;3.10;;
77984;SDS011;67177;47.240;-1.546;2023-12-07T04:20:09;10.30;;;3.43;;
77984;SDS011;67177;47.240;-1.546;2023-12-07T04:22:35;9.13;;;3.08;;
77984;SDS011;67177;47.240;-1.546;2023-12-07T04:25:01;12.38;;;3.30;;
77984;SDS011;67177;47.240;-1.546;2023-12-07T04:27:27;8.52;;;3.08;;
77984;SDS011;67177;47.240;-1.546;2023-12-07T04:29:52;8.80;;;3.00;;
77984;SDS011;67177;47.240;-1.546;2023-12-07T04:32:18;7.38;;;2.90;;
77984;SDS011;67177;47.240;-1.546;2023-12-07T04:34:44;9.13;;;2.93;;
77984;SDS011;67177;47.240;-1.546;2023-12-07T04:37:10;11.27;;;3.40;;
77984;SDS011;67177;47.240;-1.546;2023-12-07T04:39:35;10.17;;;3.37;;
77984;SDS011;67177;47.240;-1.546;2023-12-07T04:42:02;9.25;;;3.20;;
77984;SDS011;67177;47.240;-1.546;2023-12-07T04:44:28;10.90;;;2.75;;
77984;SDS011;67177;47.240;-1.546;2023-12-07T04:46:53;5.90;;;2.63;;
77984;SDS011;67177;47.240;-1.546;2023-12-07T04:49:19;8.77;;;2.70;;
77984;SDS011;67177;47.240;-1.546;2023-12-07T04:51:45;8.73;;;2.88;;
77984;SDS011;67177;47.240;-1.546;2023-12-07T04:54:14;8.38;;;2.40;;
77984;SDS011;67177;47.240;-1.546;2023-12-07T04:56:42;8.90;;;2.83;;
77984;SDS011;67177;47.240;-1.546;2023-12-07T04:59:09;8.50;;;2.55;;
77984;SDS011;67177;47.240;-1.546;2023-12-07T05:01:38;9.00;;;2.65;;
77984;SDS011;67177;47.240;-1.546;2023-12-07T05:04:04;7.63;;;2.63;;
77984;SDS011;67177;47.240;-1.546;2023-12-07T05:06:33;7.80;;;2.97;;
77984;SDS011;67177;47.240;-1.546;2023-12-07T05:09:00;6.57;;;2.43;;
77984;SDS011;67177;47.240;-1.546;2023-12-07T05:11:26;7.68;;;2.50;;
77984;SDS011;67177;47.240;-1.546;2023-12-07T05:13:51;8.30;;;2.50;;
77984;SDS011;67177;47.240;-1.546;2023-12-07T05:16:17;8.60;;;2.40;;
77984;SDS011;67177;47.240;-1.546;2023-12-07T05:18:43;8.33;;;2.50;;
77984;SDS011;67177;47.240;-1.546;2023-12-07T05:21:09;7.68;;;2.42;;
77984;SDS011;67177;47.240;-1.546;2023-12-07T05:23:34;8.63;;;2.80;;
77984;SDS011;67177;47.240;-1.546;2023-12-07T05:26:00;9.90;;;3.30;;
77984;SDS011;67177;47.240;-1.546;2023-12-07T05:28:26;15.17;;;6.70;;
77984;SDS011;67177;47.240;-1.546;2023-12-07T05:30:52;18.40;;;7.80;;
77984;SDS011;67177;47.240;-1.546;2023-12-07T05:33:18;15.93;;;6.90;;
77984;SDS011;67177;47.240;-1.546;2023-12-07T05:35:47;9.07;;;5.47;;
77984;SDS011;67177;47.240;-1.546;2023-12-07T05:38:13;12.63;;;4.90;;
77984;SDS011;67177;47.240;-1.546;2023-12-07T05:40:38;10.48;;;6.00;;
77984;SDS011;67177;47.240;-1.546;2023-12-07T05:43:04;15.50;;;7.37;;
77984;SDS011;67177;47.240;-1.546;2023-12-07T05:45:30;11.23;;;5.30;;
77984;SDS011;67177;47.240;-1.546;2023-12-07T05:47:55;9.57;;;4.93;;
77984;SDS011;67177;47.240;-1.546;2023-12-07T05:50:21;13.10;;;4.90;;
77984;SDS011;67177;47.240;-1.546;2023-12-07T05:52:47;9.57;;;4.40;;
77984;SDS011;67177;47.240;-1.546;2023-12-07T05:55:13;9.87;;;4.17;;
77984;SDS011;67177;47.240;-1.546;2023-12-07T05:57:38;8.57;;;3.38;;
77984;SDS011;67177;47.240;-1.546;2023-12-07T06:00:05;6.85;;;2.92;;
77984;SDS011;67177;47.240;-1.546;2023-12-07T06:02:35;8.77;;;3.20;;
77984;SDS011;67177;47.240;-1.546;2023-12-07T06:05:04;9.70;;;2.97;;
77984;SDS011;67177;47.240;-1.546;2023-12-07T06:07:30;8.00;;;2.53;;
77984;SDS011;67177;47.240;-1.546;2023-12-07T06:09:56;7.90;;;3.30;;
77984;SDS011;67177;47.240;-1.546;2023-12-07T06:12:21;9.63;;;5.90;;
77984;SDS011;67177;47.240;-1.546;2023-12-07T06:14:50;11.43;;;6.43;;
77984;SDS011;67177;47.240;-1.546;2023-12-07T06:17:16;10.90;;;4.22;;
77984;SDS011;67177;47.240;-1.546;2023-12-07T06:19:41;8.35;;;3.95;;
77984;SDS011;67177;47.240;-1.546;2023-12-07T06:22:07;7.95;;;3.30;;
77984;SDS011;67177;47.240;-1.546;2023-12-07T06:24:33;7.30;;;3.00;;
77984;SDS011;67177;47.240;-1.546;2023-12-07T06:26:59;8.00;;;3.07;;
77984;SDS011;67177;47.240;-1.546;2023-12-07T06:29:26;8.07;;;2.65;;
77984;SDS011;67177;47.240;-1.546;2023-12-07T06:31:52;7.80;;;3.00;;
77984;SDS011;67177;47.240;-1.546;2023-12-07T06:34:18;6.55;;;2.50;;
77984;SDS011;67177;47.240;-1.546;2023-12-07T06:36:44;9.13;;;3.20;;
77984;SDS011;67177;47.240;-1.546;2023-12-07T06:39:10;7.80;;;2.75;;
77984;SDS011;67177;47.240;-1.546;2023-12-07T06:41:36;8.90;;;3.10;;
77984;SDS011;67177;47.240;-1.546;2023-12-07T06:44:01;12.00;;;3.17;;
77984;SDS011;67177;47.240;-1.546;2023-12-07T06:46:27;7.17;;;3.07;;
77984;SDS011;67177;47.240;-1.546;2023-12-07T06:48:52;7.47;;;2.97;;
77984;SDS011;67177;47.240;-1.546;2023-12-07T06:51:18;7.82;;;3.10;;
77984;SDS011;67177;47.240;-1.546;2023-12-07T06:53:44;8.93;;;4.50;;
77984;SDS011;67177;47.240;-1.546;2023-12-07T06:56:09;9.55;;;3.80;;
77984;SDS011;67177;47.240;-1.546;2023-12-07T06:58:35;8.70;;;3.20;;
77984;SDS011;67177;47.240;-1.546;2023-12-07T07:01:00;7.90;;;3.20;;
77984;SDS011;67177;47.240;-1.546;2023-12-07T07:03:26;9.13;;;2.97;;
77984;SDS011;67177;47.240;-1.546;2023-12-07T07:05:53;8.43;;;3.22;;
77984;SDS011;67177;47.240;-1.546;2023-12-07T07:08:19;7.95;;;3.08;;
77984;SDS011;67177;47.240;-1.546;2023-12-07T07:10:45;9.13;;;3.43;;
77984;SDS011;67177;47.240;-1.546;2023-12-07T07:13:12;8.60;;;3.80;;
77984;SDS011;67177;47.240;-1.546;2023-12-07T07:15:41;8.57;;;3.92;;
77984;SDS011;67177;47.240;-1.546;2023-12-07T07:18:08;7.97;;;3.50;;
77984;SDS011;67177;47.240;-1.546;2023-12-07T07:20:34;8.13;;;3.53;;
77984;SDS011;67177;47.240;-1.546;2023-12-07T07:23:00;7.45;;;3.22;;
77984;SDS011;67177;47.240;-1.546;2023-12-07T07:25:25;9.87;;;3.30;;
77984;SDS011;67177;47.240;-1.546;2023-12-07T07:27:51;8.65;;;3.00;;
77984;SDS011;67177;47.240;-1.546;2023-12-07T07:30:19;9.95;;;3.58;;
77984;SDS011;67177;47.240;-1.546;2023-12-07T07:32:45;8.30;;;3.25;;
77984;SDS011;67177;47.240;-1.546;2023-12-07T07:35:11;8.97;;;3.80;;
77984;SDS011;67177;47.240;-1.546;2023-12-07T07:37:37;7.60;;;3.25;;
77984;SDS011;67177;47.240;-1.546;2023-12-07T07:40:03;8.50;;;3.60;;
77984;SDS011;67177;47.240;-1.546;2023-12-07T07:42:32;10.30;;;3.85;;
77984;SDS011;67177;47.240;-1.546;2023-12-07T07:44:58;9.23;;;3.75;;
77984;SDS011;67177;47.240;-1.546;2023-12-07T07:47:23;7.93;;;3.20;;
77984;SDS011;67177;47.240;-1.546;2023-12-07T07:49:49;9.80;;;3.72;;
77984;SDS011;67177;47.240;-1.546;2023-12-07T07:52:15;9.07;;;3.60;;
77984;SDS011;67177;47.240;-1.546;2023-12-07T07:54:41;9.05;;;3.47;;
77984;SDS011;67177;47.240;-1.546;2023-12-07T07:57:07;7.25;;;3.15;;
77984;SDS011;67177;47.240;-1.546;2023-12-07T07:59:32;8.13;;;3.73;;
77984;SDS011;67177;47.240;-1.546;2023-12-07T08:01:58;7.50;;;3.50;;
77984;SDS011;67177;47.240;-1.546;2023-12-07T08:04:24;10.13;;;3.75;;
77984;SDS011;67177;47.240;-1.546;2023-12-07T08:06:49;10.37;;;4.20;;
77984;SDS011;67177;47.240;-1.546;2023-12-07T08:09:15;8.10;;;3.80;;
77984;SDS011;67177;47.240;-1.546;2023-12-07T08:11:41;8.63;;;3.72;;
77984;SDS011;67177;47.240;-1.546;2023-12-07T08:14:07;9.57;;;4.47;;
77984;SDS011;67177;47.240;-1.546;2023-12-07T08:16:33;9.50;;;4.33;;
77984;SDS011;67177;47.240;-1.546;2023-12-07T08:18:59;8.73;;;4.40;;
77984;SDS011;67177;47.240;-1.546;2023-12-07T08:21:25;10.23;;;4.50;;
77984;SDS011;67177;47.240;-1.546;2023-12-07T08:23:50;8.27;;;3.58;;
77984;SDS011;67177;47.240;-1.546;2023-12-07T08:26:16;7.03;;;3.38;;
77984;SDS011;67177;47.240;-1.546;2023-12-07T08:28:42;8.45;;;3.70;;
77984;SDS011;67177;47.240;-1.546;2023-12-07T08:31:09;9.00;;;3.58;;
77984;SDS011;67177;47.240;-1.546;2023-12-07T08:33:35;8.37;;;3.40;;
77984;SDS011;67177;47.240;-1.546;2023-12-07T08:36:04;8.45;;;3.20;;
77984;SDS011;67177;47.240;-1.546;2023-12-07T08:38:30;7.22;;;3.17;;
77984;SDS011;67177;47.240;-1.546;2023-12-07T08:40:56;8.80;;;3.30;;
77984;SDS011;67177;47.240;-1.546;2023-12-07T08:43:23;9.18;;;3.10;;
77984;SDS011;67177;47.240;-1.546;2023-12-07T08:45:52;8.13;;;3.47;;
77984;SDS011;67177;47.240;-1.546;2023-12-07T08:48:18;8.20;;;3.42;;
77984;SDS011;67177;47.240;-1.546;2023-12-07T08:50:44;10.02;;;3.50;;
77984;SDS011;67177;47.240;-1.546;2023-12-07T08:53:10;9.57;;;3.13;;
77984;SDS011;67177;47.240;-1.546;2023-12-07T08:55:35;8.10;;;3.10;;
77984;SDS011;67177;47.240;-1.546;2023-12-07T08:58:01;7.17;;;2.90;;
77984;SDS011;67177;47.240;-1.546;2023-12-07T09:00:30;10.57;;;3.38;;
77984;SDS011;67177;47.240;-1.546;2023-12-07T09:02:56;8.50;;;2.90;;
77984;SDS011;67177;47.240;-1.546;2023-12-07T09:05:22;10.67;;;3.33;;
77984;SDS011;67177;47.240;-1.546;2023-12-07T09:07:48;7.85;;;3.28;;
77984;SDS011;67177;47.240;-1.546;2023-12-07T09:10:13;8.03;;;3.20;;
77984;SDS011;67177;47.240;-1.546;2023-12-07T09:12:39;9.10;;;3.30;;
77984;SDS011;67177;47.240;-1.546;2023-12-07T09:15:05;8.98;;;3.03;;
77984;SDS011;67177;47.240;-1.546;2023-12-07T09:17:34;8.80;;;3.17;;
77984;SDS011;67177;47.240;-1.546;2023-12-07T09:20:03;8.75;;;3.20;;
77984;SDS011;67177;47.240;-1.546;2023-12-07T09:22:41;9.10;;;3.33;;
77984;SDS011;67177;47.240;-1.546;2023-12-07T09:25:11;7.05;;;2.97;;
77984;SDS011;67177;47.240;-1.546;2023-12-07T09:27:38;7.40;;;3.35;;
77984;SDS011;67177;47.240;-1.546;2023-12-07T09:30:07;7.10;;;2.90;;
77984;SDS011;67177;47.240;-1.546;2023-12-07T09:32:39;8.75;;;3.30;;
77984;SDS011;67177;47.240;-1.546;2023-12-07T09:35:05;6.27;;;2.97;;
77984;SDS011;67177;47.240;-1.546;2023-12-07T09:37:32;9.40;;;3.22;;
77984;SDS011;67177;47.240;-1.546;2023-12-07T09:39:59;7.97;;;2.92;;
77984;SDS011;67177;47.240;-1.546;2023-12-07T09:42:26;11.32;;;3.45;;
77984;SDS011;67177;47.240;-1.546;2023-12-07T09:44:52;7.40;;;2.97;;
77984;SDS011;67177;47.240;-1.546;2023-12-07T09:47:17;8.43;;;3.20;;
77984;SDS011;67177;47.240;-1.546;2023-12-07T09:49:44;8.20;;;2.67;;
77984;SDS011;67177;47.240;-1.546;2023-12-07T09:52:10;16.30;;;6.55;;
77984;SDS011;67177;47.240;-1.546;2023-12-07T09:54:40;7.57;;;2.93;;
77984;SDS011;67177;47.240;-1.546;2023-12-07T09:57:06;7.43;;;3.20;;
77984;SDS011;67177;47.240;-1.546;2023-12-07T09:59:34;8.57;;;4.22;;
77984;SDS011;67177;47.240;-1.546;2023-12-07T10:02:01;11.48;;;5.00;;
77984;SDS011;67177;47.240;-1.546;2023-12-07T10:04:26;7.93;;;3.70;;
77984;SDS011;67177;47.240;-1.546;2023-12-07T10:06:52;7.85;;;3.33;;
77984;SDS011;67177;47.240;-1.546;2023-12-07T10:09:19;6.00;;;2.75;;
77984;SDS011;67177;47.240;-1.546;2023-12-07T10:11:46;8.33;;;3.30;;
77984;SDS011;67177;47.240;-1.546;2023-12-07T10:14:12;8.40;;;2.95;;
77984;SDS011;67177;47.240;-1.546;2023-12-07T10:16:39;6.82;;;3.10;;
77984;SDS011;67177;47.240;-1.546;2023-12-07T10:19:20;7.15;;;3.08;;
77984;SDS011;67177;47.240;-1.546;2023-12-07T10:21:49;8.77;;;3.28;;
77984;SDS011;67177;47.240;-1.546;2023-12-07T10:24:16;7.53;;;3.57;;
77984;SDS011;67177;47.240;-1.546;2023-12-07T10:26:46;8.20;;;3.28;;
77984;SDS011;67177;47.240;-1.546;2023-12-07T10:29:13;5.78;;;2.75;;
77984;SDS011;67177;47.240;-1.546;2023-12-07T10:31:39;8.30;;;3.20;;
77984;SDS011;67177;47.240;-1.546;2023-12-07T10:34:05;8.67;;;3.50;;
77984;SDS011;67177;47.240;-1.546;2023-12-07T10:36:31;8.18;;;2.97;;
77984;SDS011;67177;47.240;-1.546;2023-12-07T10:39:00;6.80;;;3.10;;
77984;SDS011;67177;47.240;-1.546;2023-12-07T10:41:26;7.47;;;2.95;;
77984;SDS011;67177;47.240;-1.546;2023-12-07T10:43:53;8.43;;;3.30;;
77984;SDS011;67177;47.240;-1.546;2023-12-07T10:46:23;8.00;;;3.10;;
77984;SDS011;67177;47.240;-1.546;2023-12-07T10:48:51;7.65;;;3.10;;
77984;SDS011;67177;47.240;-1.546;2023-12-07T10:54:24;7.63;;;2.80;;
77984;SDS011;67177;47.240;-1.546;2023-12-07T10:56:58;7.30;;;3.20;;
77984;SDS011;67177;47.240;-1.546;2023-12-07T10:59:27;7.35;;;3.15;;
77984;SDS011;67177;47.240;-1.546;2023-12-07T11:01:55;8.25;;;2.83;;
77984;SDS011;67177;47.240;-1.546;2023-12-07T11:04:22;7.13;;;3.13;;
77984;SDS011;67177;47.240;-1.546;2023-12-07T11:06:49;8.93;;;3.37;;
77984;SDS011;67177;47.240;-1.546;2023-12-07T11:09:19;6.93;;;3.03;;
77984;SDS011;67177;47.240;-1.546;2023-12-07T11:11:52;6.93;;;3.25;;
77984;SDS011;67177;47.240;-1.546;2023-12-07T11:14:26;7.65;;;3.00;;
77984;SDS011;67177;47.240;-1.546;2023-12-07T11:16:52;9.20;;;3.90;;
77984;SDS011;67177;47.240;-1.546;2023-12-07T11:22:01;7.43;;;3.08;;
77984;SDS011;67177;47.240;-1.546;2023-12-07T11:24:27;6.03;;;2.65;;
77984;SDS011;67177;47.240;-1.546;2023-12-07T11:26:54;6.70;;;2.92;;
77984;SDS011;67177;47.240;-1.546;2023-12-07T11:29:20;6.13;;;2.78;;
77984;SDS011;67177;47.240;-1.546;2023-12-07T11:31:48;6.32;;;3.17;;
77984;SDS011;67177;47.240;-1.546;2023-12-07T11:34:33;9.88;;;5.35;;
77984;SDS011;67177;47.240;-1.546;2023-12-07T11:37:00;7.50;;;3.97;;
77984;SDS011;67177;47.240;-1.546;2023-12-07T11:39:28;7.97;;;4.10;;
77984;SDS011;67177;47.240;-1.546;2023-12-07T11:41:55;7.65;;;3.20;;
77984;SDS011;67177;47.240;-1.546;2023-12-07T11:44:33;7.00;;;2.92;;
77984;SDS011;67177;47.240;-1.546;2023-12-07T11:47:02;9.23;;;3.00;;
77984;SDS011;67177;47.240;-1.546;2023-12-07T11:49:28;6.00;;;2.63;;
77984;SDS011;67177;47.240;-1.546;2023-12-07T11:51:55;8.20;;;2.90;;
77984;SDS011;67177;47.240;-1.546;2023-12-07T11:54:24;6.57;;;3.10;;
77984;SDS011;67177;47.240;-1.546;2023-12-07T11:56:54;6.43;;;2.80;;
77984;SDS011;67177;47.240;-1.546;2023-12-07T11:59:21;7.50;;;3.03;;
77984;SDS011;67177;47.240;-1.546;2023-12-07T12:01:47;8.23;;;2.95;;
77984;SDS011;67177;47.240;-1.546;2023-12-07T12:04:16;7.07;;;3.00;;
77984;SDS011;67177;47.240;-1.546;2023-12-07T12:06:43;7.15;;;2.80;;
77984;SDS011;67177;47.240;-1.546;2023-12-07T12:09:11;7.30;;;2.80;;
77984;SDS011;67177;47.240;-1.546;2023-12-07T12:11:38;8.03;;;2.70;;
77984;SDS011;67177;47.240;-1.546;2023-12-07T12:14:15;6.18;;;2.55;;
77984;SDS011;67177;47.240;-1.546;2023-12-07T12:16:45;6.60;;;2.70;;
77984;SDS011;67177;47.240;-1.546;2023-12-07T12:19:11;6.40;;;2.88;;
77984;SDS011;67177;47.240;-1.546;2023-12-07T12:21:44;7.07;;;3.05;;
77984;SDS011;67177;47.240;-1.546;2023-12-07T12:24:12;6.80;;;2.80;;
77984;SDS011;67177;47.240;-1.546;2023-12-07T12:26:42;6.80;;;2.78;;
77984;SDS011;67177;47.240;-1.546;2023-12-07T12:29:08;7.82;;;3.38;;
77984;SDS011;67177;47.240;-1.546;2023-12-07T12:31:35;7.07;;;2.63;;
77984;SDS011;67177;47.240;-1.546;2023-12-07T12:34:01;8.38;;;2.80;;
77984;SDS011;67177;47.240;-1.546;2023-12-07T12:36:27;8.82;;;2.97;;
77984;SDS011;67177;47.240;-1.546;2023-12-07T12:38:54;6.70;;;2.88;;
77984;SDS011;67177;47.240;-1.546;2023-12-07T12:41:21;8.50;;;3.10;;
77984;SDS011;67177;47.240;-1.546;2023-12-07T12:43:47;7.77;;;2.73;;
77984;SDS011;67177;47.240;-1.546;2023-12-07T12:46:13;7.40;;;2.70;;
77984;SDS011;67177;47.240;-1.546;2023-12-07T12:48:57;6.97;;;3.25;;
77984;SDS011;67177;47.240;-1.546;2023-12-07T12:51:29;7.65;;;3.13;;
77984;SDS011;67177;47.240;-1.546;2023-12-07T12:53:59;6.97;;;2.75;;
77984;SDS011;67177;47.240;-1.546;2023-12-07T12:56:26;8.57;;;2.70;;
77984;SDS011;67177;47.240;-1.546;2023-12-07T12:58:53;7.75;;;3.08;;
77984;SDS011;67177;47.240;-1.546;2023-12-07T13:01:21;7.10;;;3.03;;
77984;SDS011;67177;47.240;-1.546;2023-12-07T13:03:47;7.88;;;3.40;;
77984;SDS011;67177;47.240;-1.546;2023-12-07T13:06:13;9.27;;;2.90;;
77984;SDS011;67177;47.240;-1.546;2023-12-07T13:08:40;9.65;;;3.20;;
77984;SDS011;67177;47.240;-1.546;2023-12-07T13:11:14;6.65;;;2.80;;
77984;SDS011;67177;47.240;-1.546;2023-12-07T13:13:40;7.05;;;2.80;;
77984;SDS011;67177;47.240;-1.546;2023-12-07T13:16:06;6.87;;;2.77;;
77984;SDS011;67177;47.240;-1.546;2023-12-07T13:18:32;7.00;;;2.67;;
77984;SDS011;67177;47.240;-1.546;2023-12-07T13:20:57;6.60;;;2.95;;
77984;SDS011;67177;47.240;-1.546;2023-12-07T13:23:24;6.75;;;2.45;;
77984;SDS011;67177;47.240;-1.546;2023-12-07T13:25:50;6.63;;;2.70;;
77984;SDS011;67177;47.240;-1.546;2023-12-07T13:28:16;6.60;;;2.50;;
77984;SDS011;67177;47.240;-1.546;2023-12-07T13:30:42;8.38;;;3.38;;
77984;SDS011;67177;47.240;-1.546;2023-12-07T13:33:08;7.27;;;2.83;;
77984;SDS011;67177;47.240;-1.546;2023-12-07T13:35:34;8.00;;;3.20;;
77984;SDS011;67177;47.240;-1.546;2023-12-07T13:38:00;8.10;;;3.17;;
77984;SDS011;67177;47.240;-1.546;2023-12-07T13:40:26;7.80;;;2.97;;
77984;SDS011;67177;47.240;-1.546;2023-12-07T13:42:52;9.45;;;3.30;;
77984;SDS011;67177;47.240;-1.546;2023-12-07T13:45:18;10.48;;;3.35;;
77984;SDS011;67177;47.240;-1.546;2023-12-07T13:47:44;6.73;;;2.90;;
77984;SDS011;67177;47.240;-1.546;2023-12-07T13:50:10;8.38;;;3.17;;
77984;SDS011;67177;47.240;-1.546;2023-12-07T13:52:36;5.85;;;2.50;;
77984;SDS011;67177;47.240;-1.546;2023-12-07T13:55:03;6.30;;;2.72;;
77984;SDS011;67177;47.240;-1.546;2023-12-07T13:57:29;8.82;;;3.10;;
77984;SDS011;67177;47.240;-1.546;2023-12-07T13:59:55;9.10;;;3.00;;
77984;SDS011;67177;47.240;-1.546;2023-12-07T14:02:22;10.00;;;3.30;;
77984;SDS011;67177;47.240;-1.546;2023-12-07T14:04:49;8.70;;;2.72;;
77984;SDS011;67177;47.240;-1.546;2023-12-07T14:07:15;9.77;;;2.85;;
77984;SDS011;67177;47.240;-1.546;2023-12-07T14:09:46;7.43;;;3.05;;
77984;SDS011;67177;47.240;-1.546;2023-12-07T14:12:14;7.77;;;3.10;;
77984;SDS011;67177;47.240;-1.546;2023-12-07T14:14:43;6.75;;;2.75;;
77984;SDS011;67177;47.240;-1.546;2023-12-07T14:17:14;6.93;;;2.95;;
77984;SDS011;67177;47.240;-1.546;2023-12-07T14:19:41;11.27;;;3.40;;
77984;SDS011;67177;47.240;-1.546;2023-12-07T14:22:07;8.27;;;3.00;;
77984;SDS011;67177;47.240;-1.546;2023-12-07T14:24:36;7.70;;;3.20;;
77984;SDS011;67177;47.240;-1.546;2023-12-07T14:27:02;6.90;;;3.30;;
77984;SDS011;67177;47.240;-1.546;2023-12-07T14:29:31;10.15;;;3.67;;
77984;SDS011;67177;47.240;-1.546;2023-12-07T14:31:57;9.38;;;3.60;;
77984;SDS011;67177;47.240;-1.546;2023-12-07T14:34:24;8.57;;;3.70;;
77984;SDS011;67177;47.240;-1.546;2023-12-07T14:36:52;8.40;;;3.67;;
77984;SDS011;67177;47.240;-1.546;2023-12-07T14:39:18;7.97;;;3.40;;
77984;SDS011;67177;47.240;-1.546;2023-12-07T14:41:45;7.90;;;3.70;;